createdAt,value
2022-12-04T00:00:01.818Z,95.24
2022-12-04T00:01:09.289Z,95.36
2022-12-04T00:02:14.506Z,95.26
2022-12-04T00:03:17.629Z,95.22
2022-12-04T00:04:21.445Z,95.53
2022-12-04T00:05:24.150Z,95.57
2022-12-04T00:06:28.027Z,95.04
2022-12-04T00:07:30.952Z,95.29
2022-12-04T00:08:35.237Z,95.31
2022-12-04T00:09:39.086Z,95.06
2022-12-04T00:10:43.622Z,94.87
2022-12-04T00:11:47.398Z,94.88
2022-12-04T00:12:50.107Z,94.94
2022-12-04T00:13:54.245Z,94.80
2022-12-04T00:16:22.833Z,94.82
2022-12-04T00:17:26.968Z,95.06
2022-12-04T00:18:30.787Z,94.86
2022-12-04T00:19:33.727Z,95.17
2022-12-04T00:20:41.307Z,94.95
2022-12-04T00:21:46.272Z,94.58
2022-12-04T00:22:49.106Z,94.71
2022-12-04T00:23:53.105Z,94.76
2022-12-04T00:24:55.816Z,94.58
2022-12-04T00:26:02.181Z,94.73
2022-12-04T00:27:05.940Z,94.65
2022-12-04T00:28:08.725Z,94.81
2022-12-04T00:29:12.479Z,94.86
2022-12-04T00:30:15.345Z,94.59
2022-12-04T00:31:21.022Z,94.54
2022-12-04T00:32:23.775Z,94.86
2022-12-04T00:33:28.917Z,94.34
2022-12-04T00:34:31.615Z,94.75
2022-12-04T00:35:35.389Z,94.63
2022-12-04T00:36:38.499Z,94.23
2022-12-04T00:37:42.207Z,94.74
2022-12-04T00:38:45.358Z,94.45
2022-12-04T00:39:49.239Z,94.37
2022-12-04T00:40:52.084Z,94.67
2022-12-04T00:41:55.747Z,94.19
2022-12-04T00:42:58.430Z,94.26
2022-12-04T00:44:03.159Z,94.18
2022-12-04T00:45:06.887Z,94.43
2022-12-04T00:46:10.863Z,94.44
2022-12-04T00:47:13.774Z,94.25
2022-12-04T00:48:17.918Z,94.38
2022-12-04T00:49:21.996Z,94.35
2022-12-04T00:50:25.875Z,94.41
2022-12-04T00:51:29.038Z,94.12
2022-12-04T00:52:32.727Z,94.35
2022-12-04T00:53:35.835Z,94.40
2022-12-04T00:54:39.617Z,94.36
2022-12-04T00:55:43.207Z,94.21
2022-12-04T00:56:46.992Z,93.55
2022-12-04T00:57:49.638Z,93.80
2022-12-04T00:58:54.103Z,93.63
2022-12-04T00:59:57.009Z,93.67
2022-12-04T01:01:04.602Z,93.40
2022-12-04T01:02:07.425Z,93.33
2022-12-04T01:03:11.599Z,93.75
2022-12-04T01:04:14.402Z,93.60
2022-12-04T01:05:19.979Z,93.67
2022-12-04T01:06:24.365Z,93.34
2022-12-04T01:07:28.179Z,93.29
2022-12-04T01:08:31.252Z,93.48
2022-12-04T01:09:35.415Z,93.64
2022-12-04T01:10:39.687Z,93.59
2022-12-04T01:11:43.420Z,93.69
2022-12-04T01:12:46.246Z,93.43
2022-12-04T01:13:50.287Z,93.60
2022-12-04T01:14:53.007Z,93.65
2022-12-04T01:15:56.782Z,93.44
2022-12-04T01:16:59.675Z,93.40
2022-12-04T01:18:03.440Z,93.39
2022-12-04T01:19:07.236Z,93.30
2022-12-04T01:20:12.756Z,93.09
2022-12-04T01:21:17.025Z,93.22
2022-12-04T01:22:20.719Z,93.27
2022-12-04T01:23:23.481Z,93.47
2022-12-04T01:24:27.200Z,93.00
2022-12-04T01:27:06.306Z,93.50
2022-12-04T01:28:09.293Z,93.13
2022-12-04T01:29:13.505Z,93.58
2022-12-04T01:30:16.424Z,93.43
2022-12-04T01:31:22.314Z,93.37
2022-12-04T01:32:26.103Z,93.31
2022-12-04T01:33:29.188Z,93.46
2022-12-04T01:34:32.908Z,93.02
2022-12-04T01:35:35.654Z,92.86
2022-12-04T01:36:40.793Z,93.07
2022-12-04T01:37:43.535Z,93.61
2022-12-04T01:38:47.654Z,93.59
2022-12-04T01:39:50.353Z,93.54
2022-12-04T01:40:54.826Z,93.38
2022-12-04T01:41:57.556Z,93.55
2022-12-04T01:43:01.760Z,93.52
2022-12-04T01:44:13.085Z,93.50
2022-12-04T01:45:41.013Z,93.71
2022-12-04T01:46:44.895Z,93.70
2022-12-04T01:47:48.773Z,93.70
2022-12-04T01:48:53.226Z,93.48
2022-12-04T01:49:57.281Z,93.88
2022-12-04T01:51:04.849Z,93.56
2022-12-04T01:52:15.822Z,93.58
2022-12-04T01:53:18.873Z,93.56
2022-12-04T01:54:28.982Z,93.85
2022-12-04T01:55:32.324Z,93.64
2022-12-04T01:56:39.608Z,93.44
2022-12-04T01:57:42.854Z,93.85
2022-12-04T01:58:50.022Z,93.47
2022-12-04T01:59:55.768Z,93.47
2022-12-04T02:01:08.247Z,93.52
2022-12-04T02:02:13.271Z,93.56
2022-12-04T02:03:17.013Z,93.68
2022-12-04T02:04:20.293Z,93.67
2022-12-04T02:05:25.260Z,93.81
2022-12-04T02:06:27.965Z,93.27
2022-12-04T02:07:33.680Z,93.33
2022-12-04T02:08:36.823Z,93.31
2022-12-04T02:09:41.306Z,93.82
2022-12-04T02:10:52.455Z,93.66
2022-12-04T02:12:00.653Z,93.16
2022-12-04T02:13:08.482Z,93.64
2022-12-04T02:14:20.873Z,94.11
2022-12-04T02:15:25.913Z,93.94
2022-12-04T02:16:35.278Z,93.96
2022-12-04T02:17:41.535Z,94.33
2022-12-04T02:18:51.955Z,94.32
2022-12-04T02:20:10.024Z,94.30
2022-12-04T02:21:16.113Z,94.54
2022-12-04T02:22:28.657Z,94.61
2022-12-04T02:23:57.413Z,95.04
2022-12-04T02:25:08.295Z,94.94
2022-12-04T02:26:22.821Z,94.74
2022-12-04T02:27:48.564Z,94.82
2022-12-04T02:28:54.482Z,94.79
2022-12-04T02:30:01.099Z,95.15
2022-12-04T02:31:05.772Z,95.57
2022-12-04T02:32:16.611Z,95.22
2022-12-04T02:33:22.091Z,95.23
2022-12-04T02:34:30.094Z,95.49
2022-12-04T02:35:36.877Z,95.47
2022-12-04T02:36:44.957Z,95.47
2022-12-04T02:37:50.132Z,95.47
2022-12-04T02:38:57.594Z,95.68
2022-12-04T02:40:05.643Z,95.63
2022-12-04T02:41:14.415Z,95.65
2022-12-04T02:42:20.247Z,95.53
2022-12-04T02:43:27.345Z,95.38
2022-12-04T02:44:33.186Z,95.80
2022-12-04T02:45:40.050Z,95.76
2022-12-04T02:46:44.522Z,95.48
2022-12-04T02:47:48.413Z,95.59
2022-12-04T02:48:52.907Z,95.66
2022-12-04T02:49:59.305Z,95.38
2022-12-04T02:51:02.682Z,95.77
2022-12-04T02:52:08.691Z,95.69
2022-12-04T02:53:14.134Z,95.67
2022-12-04T02:54:22.035Z,95.94
2022-12-04T02:55:27.762Z,95.38
2022-12-04T02:56:33.769Z,95.62
2022-12-04T02:57:39.234Z,95.21
2022-12-04T02:58:48.773Z,95.23
2022-12-04T02:59:53.155Z,95.50
2022-12-04T03:00:59.290Z,95.44
2022-12-04T03:02:04.638Z,95.93
2022-12-04T03:03:10.380Z,95.87
2022-12-04T03:04:16.092Z,95.83
2022-12-04T03:05:23.272Z,95.86
2022-12-04T03:06:28.775Z,95.61
2022-12-04T03:07:35.993Z,95.73
2022-12-04T03:08:42.813Z,95.62
2022-12-04T03:09:50.048Z,95.78
2022-12-04T03:10:55.386Z,95.23
2022-12-04T03:12:01.516Z,95.63
2022-12-04T03:13:07.946Z,95.37
2022-12-04T03:14:15.612Z,95.49
2022-12-04T03:15:20.688Z,95.25
2022-12-04T03:16:26.247Z,95.16
2022-12-04T03:17:33.448Z,95.27
2022-12-04T03:18:40.720Z,94.99
2022-12-04T03:19:47.592Z,95.26
2022-12-04T03:20:55.615Z,95.38
2022-12-04T03:22:00.665Z,95.25
2022-12-04T03:23:08.397Z,95.13
2022-12-04T03:24:15.104Z,95.19
2022-12-04T03:25:19.004Z,95.10
2022-12-04T03:26:26.314Z,94.77
2022-12-04T03:27:34.047Z,94.71
2022-12-04T03:28:47.727Z,95.00
2022-12-04T03:29:56.938Z,94.84
2022-12-04T03:31:03.593Z,94.87
2022-12-04T03:32:11.644Z,94.93
2022-12-04T03:33:17.494Z,94.58
2022-12-04T03:34:28.104Z,94.82
2022-12-04T03:35:34.745Z,94.94
2022-12-04T03:36:39.664Z,95.17
2022-12-04T03:37:47.585Z,95.20
2022-12-04T03:38:55.513Z,95.26
2022-12-04T03:40:04.041Z,95.10
2022-12-04T03:41:10.954Z,95.31
2022-12-04T03:42:16.843Z,95.69
2022-12-04T03:43:25.374Z,95.58
2022-12-04T03:44:33.432Z,95.51
2022-12-04T03:45:44.609Z,95.72
2022-12-04T03:46:51.035Z,96.00
2022-12-04T03:47:58.794Z,95.78
2022-12-04T03:49:07.595Z,95.87
2022-12-04T03:50:15.253Z,96.28
2022-12-04T03:51:23.045Z,96.52
2022-12-04T03:52:30.762Z,96.66
2022-12-04T03:53:37.236Z,96.40
2022-12-04T03:54:45.085Z,96.63
2022-12-04T03:55:50.194Z,96.44
2022-12-04T03:56:56.874Z,96.88
2022-12-04T03:58:01.700Z,96.56
2022-12-04T03:59:11.835Z,96.97
2022-12-04T04:00:16.336Z,96.38
2022-12-04T04:01:24.605Z,96.73
2022-12-04T04:02:30.313Z,97.12
2022-12-04T04:03:38.164Z,97.29
2022-12-04T04:04:41.446Z,96.83
2022-12-04T04:05:49.512Z,96.92
2022-12-04T04:06:55.073Z,97.21
2022-12-04T04:08:21.856Z,97.15
2022-12-04T04:09:27.515Z,97.44
2022-12-04T04:10:31.445Z,97.00
2022-12-04T04:11:36.601Z,97.08
2022-12-04T04:12:44.673Z,97.18
2022-12-04T04:14:08.635Z,97.16
2022-12-04T04:15:32.520Z,97.29
2022-12-04T04:16:56.963Z,97.02
2022-12-04T04:18:17.786Z,97.52
2022-12-04T04:19:39.668Z,97.19
2022-12-04T04:21:03.369Z,97.19
2022-12-04T04:22:30.660Z,97.41
2022-12-04T04:23:56.085Z,97.21
2022-12-04T04:25:04.325Z,97.24
2022-12-04T04:26:07.944Z,97.60
2022-12-04T04:27:11.895Z,97.19
2022-12-04T04:28:34.488Z,97.46
2022-12-04T04:29:38.777Z,97.36
2022-12-04T04:30:41.522Z,97.33
2022-12-04T04:31:50.753Z,97.14
2022-12-04T04:32:59.934Z,97.58
2022-12-04T04:34:06.013Z,97.48
2022-12-04T04:35:16.856Z,97.46
2022-12-04T04:36:24.993Z,97.13
2022-12-04T04:37:32.648Z,97.16
2022-12-04T04:38:40.147Z,97.52
2022-12-04T04:39:48.003Z,97.18
2022-12-04T04:40:54.954Z,97.40
2022-12-04T04:42:03.388Z,97.47
2022-12-04T04:43:10.257Z,97.23
2022-12-04T04:44:19.352Z,97.51
2022-12-04T04:45:24.633Z,97.07
2022-12-04T04:46:32.193Z,97.37
2022-12-04T04:47:39.505Z,97.22
2022-12-04T04:48:45.717Z,97.54
2022-12-04T04:49:49.784Z,97.49
2022-12-04T04:50:54.242Z,97.31
2022-12-04T04:51:57.484Z,97.38
2022-12-04T04:53:04.052Z,97.47
2022-12-04T04:54:09.962Z,97.29
2022-12-04T04:55:13.975Z,97.30
2022-12-04T04:56:16.782Z,97.65
2022-12-04T04:57:38.344Z,97.62
2022-12-04T04:58:41.762Z,97.40
2022-12-04T04:59:45.504Z,97.55
2022-12-04T05:00:54.315Z,97.56
2022-12-04T05:01:58.621Z,97.29
2022-12-04T05:03:02.928Z,97.77
2022-12-04T05:04:08.099Z,97.52
2022-12-04T05:05:14.033Z,97.75
2022-12-04T05:06:17.661Z,97.63
2022-12-04T05:07:20.376Z,97.72
2022-12-04T05:08:24.494Z,97.42
2022-12-04T05:09:27.212Z,97.34
2022-12-04T05:10:30.934Z,97.37
2022-12-04T05:11:33.571Z,97.39
2022-12-04T05:12:37.478Z,97.35
2022-12-04T05:13:40.445Z,97.64
2022-12-04T05:14:44.195Z,97.80
2022-12-04T05:15:56.931Z,97.56
2022-12-04T05:17:02.055Z,97.62
2022-12-04T05:18:06.644Z,97.76
2022-12-04T05:19:27.624Z,97.35
2022-12-04T05:20:31.277Z,97.25
2022-12-04T05:21:34.451Z,97.35
2022-12-04T05:22:38.714Z,97.71
2022-12-04T05:23:41.423Z,97.39
2022-12-04T05:24:45.114Z,97.57
2022-12-04T05:25:47.812Z,97.56
2022-12-04T05:26:51.785Z,97.55
2022-12-04T05:27:54.433Z,97.28
2022-12-04T05:28:58.130Z,97.40
2022-12-04T05:30:00.825Z,97.29
2022-12-04T05:31:05.311Z,97.35
2022-12-04T05:32:08.120Z,97.23
2022-12-04T05:33:13.283Z,97.75
2022-12-04T05:34:16.006Z,97.71
2022-12-04T05:35:19.774Z,97.44
2022-12-04T05:36:22.462Z,97.62
2022-12-04T05:37:26.574Z,97.83
2022-12-04T05:38:29.468Z,97.41
2022-12-04T05:39:33.411Z,97.69
2022-12-04T05:40:36.854Z,97.65
2022-12-04T05:41:40.544Z,97.17
2022-12-04T05:42:43.653Z,97.44
2022-12-04T05:43:47.335Z,97.63
2022-12-04T05:44:50.270Z,97.19
2022-12-04T05:45:56.156Z,97.16
2022-12-04T05:46:59.260Z,97.40
2022-12-04T05:48:03.086Z,97.20
2022-12-04T05:49:07.457Z,97.46
2022-12-04T05:50:12.285Z,97.36
2022-12-04T05:51:14.993Z,97.31
2022-12-04T05:52:18.772Z,97.63
2022-12-04T05:53:21.546Z,97.60
2022-12-04T05:54:25.296Z,97.29
2022-12-04T05:55:27.962Z,97.63
2022-12-04T05:56:31.696Z,97.66
2022-12-04T05:57:35.484Z,97.46
2022-12-04T05:58:38.691Z,97.42
2022-12-04T05:59:42.496Z,97.54
2022-12-04T06:00:45.154Z,97.25
2022-12-04T06:01:48.935Z,97.48
2022-12-04T06:02:51.657Z,97.36
2022-12-04T06:03:55.564Z,97.40
2022-12-04T06:04:59.694Z,97.77
2022-12-04T06:06:03.446Z,97.72
2022-12-04T06:07:07.074Z,97.58
2022-12-04T06:08:10.855Z,97.79
2022-12-04T06:09:13.712Z,97.40
2022-12-04T06:10:17.716Z,97.45
2022-12-04T06:11:22.282Z,97.67
2022-12-04T06:12:25.976Z,97.44
2022-12-04T06:13:28.686Z,97.50
2022-12-04T06:14:37.703Z,97.72
2022-12-04T06:15:42.395Z,97.50
2022-12-04T06:16:47.956Z,97.46
2022-12-04T06:17:50.635Z,97.95
2022-12-04T06:18:55.763Z,97.62
2022-12-04T06:20:00.502Z,97.33
2022-12-04T06:21:04.719Z,97.65
2022-12-04T06:22:08.515Z,97.65
2022-12-04T06:23:11.255Z,97.38
2022-12-04T06:24:16.220Z,97.43
2022-12-04T06:25:19.005Z,97.35
2022-12-04T06:26:23.413Z,97.34
2022-12-04T06:27:27.661Z,97.54
2022-12-04T06:28:32.288Z,97.54
2022-12-04T06:29:35.088Z,97.38
2022-12-04T06:30:38.775Z,97.14
2022-12-04T06:31:42.126Z,97.63
2022-12-04T06:32:45.922Z,97.20
2022-12-04T06:33:48.661Z,97.30
2022-12-04T06:34:53.820Z,97.33
2022-12-04T06:36:01.839Z,97.76
2022-12-04T06:37:05.584Z,97.09
2022-12-04T06:38:08.368Z,97.51
2022-12-04T06:39:17.026Z,97.64
2022-12-04T06:40:21.454Z,97.45
2022-12-04T06:41:26.804Z,97.78
2022-12-04T06:42:29.512Z,97.42
2022-12-04T06:43:33.765Z,97.91
2022-12-04T06:44:36.533Z,97.97
2022-12-04T06:45:40.418Z,97.73
2022-12-04T06:46:46.881Z,97.66
2022-12-04T06:47:50.917Z,97.72
2022-12-04T06:48:55.037Z,97.98
2022-12-04T06:49:58.993Z,98.16
2022-12-04T06:51:04.890Z,97.84
2022-12-04T06:52:08.624Z,98.18
2022-12-04T06:53:11.274Z,98.42
2022-12-04T06:54:15.163Z,98.41
2022-12-04T06:55:18.015Z,98.38
2022-12-04T06:56:24.073Z,98.29
2022-12-04T06:57:26.738Z,98.13
2022-12-04T06:58:30.862Z,98.08
2022-12-04T06:59:34.068Z,98.37
2022-12-04T07:00:37.922Z,98.23
2022-12-04T07:01:40.677Z,98.14
2022-12-04T07:02:44.560Z,98.09
2022-12-04T07:03:51.335Z,98.22
2022-12-04T07:04:57.495Z,98.31
2022-12-04T07:06:00.175Z,98.33
2022-12-04T07:07:05.373Z,98.28
2022-12-04T07:08:08.160Z,98.11
2022-12-04T07:09:13.593Z,98.10
2022-12-04T07:10:16.384Z,98.33
2022-12-04T07:11:20.410Z,98.60
2022-12-04T07:12:27.246Z,98.26
2022-12-04T07:13:30.964Z,98.17
2022-12-04T07:14:33.684Z,98.58
2022-12-04T07:15:38.723Z,98.38
2022-12-04T07:16:42.868Z,98.02
2022-12-04T07:17:46.736Z,98.49
2022-12-04T07:18:50.674Z,98.67
2022-12-04T07:19:54.643Z,98.63
2022-12-04T07:20:57.642Z,98.12
2022-12-04T07:22:01.346Z,98.10
2022-12-04T07:23:07.341Z,98.42
2022-12-04T07:24:15.647Z,98.06
2022-12-04T07:25:18.362Z,98.10
2022-12-04T07:26:22.447Z,97.86
2022-12-04T07:27:26.235Z,97.78
2022-12-04T07:28:28.864Z,97.75
2022-12-04T07:29:33.732Z,97.27
2022-12-04T07:30:37.852Z,97.40
2022-12-04T07:31:41.707Z,97.32
2022-12-04T07:32:44.354Z,97.04
2022-12-04T07:33:49.163Z,97.46
2022-12-04T07:34:51.902Z,97.44
2022-12-04T07:35:58.754Z,97.24
2022-12-04T07:37:01.432Z,97.42
2022-12-04T07:38:06.577Z,97.22
2022-12-04T07:39:09.288Z,97.43
2022-12-04T07:40:14.335Z,97.21
2022-12-04T07:41:17.793Z,97.39
2022-12-04T07:42:24.214Z,97.02
2022-12-04T07:43:27.591Z,96.90
2022-12-04T07:44:32.449Z,97.28
2022-12-04T07:45:35.310Z,97.49
2022-12-04T07:46:39.148Z,97.69
2022-12-04T07:47:41.855Z,97.33
2022-12-04T07:48:45.913Z,97.42
2022-12-04T07:49:48.653Z,97.19
2022-12-04T07:50:52.456Z,97.61
2022-12-04T07:51:55.077Z,97.54
2022-12-04T07:52:58.811Z,97.45
2022-12-04T07:54:04.561Z,97.43
2022-12-04T07:55:08.014Z,97.57
2022-12-04T07:56:12.849Z,97.25
2022-12-04T07:57:15.814Z,97.60
2022-12-04T07:58:19.533Z,96.94
2022-12-04T07:59:23.288Z,96.92
2022-12-04T08:00:25.974Z,96.99
2022-12-04T08:01:29.770Z,96.86
2022-12-04T08:02:32.542Z,96.72
2022-12-04T08:03:36.384Z,96.81
2022-12-04T08:04:40.058Z,96.37
2022-12-04T08:05:42.701Z,96.86
2022-12-04T08:06:46.496Z,96.65
2022-12-04T08:07:49.218Z,96.88
2022-12-04T08:08:53.812Z,96.73
2022-12-04T08:09:58.082Z,96.34
2022-12-04T08:11:02.608Z,96.48
2022-12-04T08:12:06.773Z,96.51
2022-12-04T08:13:10.527Z,96.42
2022-12-04T08:14:13.672Z,96.78
2022-12-04T08:15:17.470Z,96.61
2022-12-04T08:16:20.190Z,96.64
2022-12-04T08:17:24.112Z,96.75
2022-12-04T08:18:26.855Z,96.64
2022-12-04T08:19:30.523Z,96.83
2022-12-04T08:20:33.203Z,97.13
2022-12-04T08:21:37.014Z,96.43
2022-12-04T08:22:39.992Z,96.57
2022-12-04T08:23:44.759Z,96.60
2022-12-04T08:24:47.388Z,96.54
2022-12-04T08:25:52.578Z,96.74
2022-12-04T08:26:55.365Z,97.16
2022-12-04T08:27:59.363Z,97.06
2022-12-04T08:29:03.615Z,96.80
2022-12-04T08:30:07.919Z,97.53
2022-12-04T08:31:13.897Z,97.53
2022-12-04T08:32:17.734Z,97.72
2022-12-04T08:33:20.435Z,97.92
2022-12-04T08:34:24.153Z,97.91
2022-12-04T08:35:26.854Z,98.07
2022-12-04T08:36:30.573Z,97.83
2022-12-04T08:37:34.555Z,97.26
2022-12-04T08:38:37.676Z,97.11
2022-12-04T08:39:41.547Z,97.11
2022-12-04T08:40:44.173Z,97.38
2022-12-04T08:41:53.866Z,97.40
2022-12-04T08:43:00.585Z,97.09
2022-12-04T08:44:04.422Z,97.50
2022-12-04T08:45:08.505Z,97.07
2022-12-04T08:46:13.394Z,97.11
2022-12-04T08:47:17.205Z,97.14
2022-12-04T08:48:20.925Z,96.81
2022-12-04T08:49:24.658Z,96.66
2022-12-04T08:50:28.554Z,96.74
2022-12-04T08:51:34.964Z,96.42
2022-12-04T08:52:38.696Z,96.11
2022-12-04T08:53:41.302Z,96.37
2022-12-04T08:54:44.994Z,96.20
2022-12-04T08:55:48.974Z,96.21
2022-12-04T08:56:54.091Z,96.47
2022-12-04T08:57:56.736Z,96.52
2022-12-04T08:59:01.264Z,96.59
2022-12-04T09:00:04.751Z,96.21
2022-12-04T09:01:09.535Z,95.72
2022-12-04T09:02:14.054Z,95.39
2022-12-04T09:03:18.276Z,95.46
2022-12-04T09:04:22.020Z,95.37
2022-12-04T09:05:24.724Z,95.13
2022-12-04T09:06:28.535Z,94.59
2022-12-04T09:07:32.358Z,94.92
2022-12-04T09:08:36.111Z,94.74
2022-12-04T09:09:44.954Z,94.53
2022-12-04T09:10:50.624Z,94.37
2022-12-04T09:11:55.945Z,94.56
2022-12-04T09:12:58.593Z,94.38
2022-12-04T09:14:03.288Z,94.24
2022-12-04T09:15:07.188Z,93.66
2022-12-04T09:16:13.257Z,93.98
2022-12-04T09:17:17.053Z,93.83
2022-12-04T09:18:20.785Z,93.71
2022-12-04T09:19:23.484Z,93.55
2022-12-04T09:20:27.258Z,93.84
2022-12-04T09:21:29.983Z,93.80
2022-12-04T09:22:57.736Z,93.90
2022-12-04T09:24:00.691Z,93.90
2022-12-04T09:25:05.263Z,94.32
2022-12-04T09:26:19.670Z,94.05
2022-12-04T09:27:24.786Z,94.03
2022-12-04T09:28:27.795Z,94.13
2022-12-04T09:29:31.544Z,94.23
2022-12-04T09:30:34.335Z,94.33
2022-12-04T09:31:38.331Z,93.72
2022-12-04T09:32:41.104Z,93.77
2022-12-04T09:33:44.995Z,93.57
2022-12-04T09:34:51.351Z,93.70
2022-12-04T09:35:56.631Z,93.24
2022-12-04T09:36:59.335Z,93.74
2022-12-04T09:38:03.084Z,93.21
2022-12-04T09:39:06.866Z,93.44
2022-12-04T09:40:22.433Z,93.80
2022-12-04T09:41:57.045Z,93.54
2022-12-04T09:43:06.948Z,92.73
2022-12-04T09:44:16.917Z,92.49
2022-12-04T09:45:23.591Z,92.04
2022-12-04T09:46:33.144Z,92.14
2022-12-04T09:47:41.361Z,92.94
2022-12-04T09:48:49.595Z,93.08
2022-12-04T09:49:56.301Z,92.62
2022-12-04T09:51:00.183Z,92.66
2022-12-04T09:52:22.033Z,92.70
2022-12-04T09:53:29.085Z,92.34
2022-12-04T09:54:38.806Z,92.24
2022-12-04T09:55:45.016Z,92.27
2022-12-04T09:56:53.884Z,92.63
2022-12-04T09:58:02.116Z,92.39
2022-12-04T09:59:11.563Z,91.33
2022-12-04T10:00:18.127Z,91.61
2022-12-04T10:01:23.846Z,91.12
2022-12-04T10:02:36.520Z,91.63
2022-12-04T10:03:41.829Z,91.60
2022-12-04T10:04:44.593Z,92.01
2022-12-04T10:05:54.212Z,91.92
2022-12-04T10:07:02.491Z,91.50
2022-12-04T10:08:12.687Z,90.40
2022-12-04T10:09:23.297Z,90.49
2022-12-04T10:10:34.975Z,91.05
2022-12-04T10:11:45.468Z,91.93
2022-12-04T10:12:53.972Z,91.98
2022-12-04T10:14:06.042Z,91.60
2022-12-04T10:15:22.394Z,91.19
2022-12-04T10:16:29.259Z,91.13
2022-12-04T10:17:56.106Z,90.87
2022-12-04T10:19:05.044Z,90.89
2022-12-04T10:20:17.944Z,90.77
2022-12-04T10:21:43.015Z,89.91
2022-12-04T10:22:52.335Z,90.06
2022-12-04T10:24:03.730Z,89.76
2022-12-04T10:25:10.595Z,90.09
2022-12-04T10:26:17.007Z,89.85
2022-12-04T10:27:22.563Z,89.48
2022-12-04T10:28:29.095Z,89.32
2022-12-04T10:29:33.963Z,90.00
2022-12-04T10:30:39.755Z,89.76
2022-12-04T10:31:45.343Z,89.91
2022-12-04T10:32:50.105Z,90.08
2022-12-04T10:33:54.490Z,89.70
2022-12-04T10:35:01.302Z,89.46
2022-12-04T10:36:05.166Z,89.81
2022-12-04T10:37:14.042Z,90.24
2022-12-04T10:38:33.333Z,89.90
2022-12-04T10:39:39.501Z,89.61
2022-12-04T10:40:49.424Z,89.08
2022-12-04T10:41:56.154Z,88.80
2022-12-04T10:43:05.674Z,89.04
2022-12-04T10:44:11.596Z,89.47
2022-12-04T10:45:14.371Z,89.27
2022-12-04T10:46:23.526Z,89.39
2022-12-04T10:47:27.410Z,89.27
2022-12-04T10:48:34.361Z,89.34
2022-12-04T10:49:38.864Z,89.07
2022-12-04T10:50:42.536Z,88.76
2022-12-04T10:51:46.919Z,88.54
2022-12-04T10:52:49.815Z,89.25
2022-12-04T10:53:53.668Z,89.27
2022-12-04T10:54:59.643Z,89.08
2022-12-04T10:56:13.336Z,89.07
2022-12-04T10:57:16.535Z,89.22
2022-12-04T10:58:21.284Z,88.99
2022-12-04T10:59:24.495Z,89.20
2022-12-04T11:00:30.800Z,89.57
2022-12-04T11:01:37.100Z,89.45
2022-12-04T11:02:40.273Z,88.94
2022-12-04T11:03:46.129Z,88.88
2022-12-04T11:04:54.481Z,88.89
2022-12-04T11:05:59.594Z,88.76
2022-12-04T11:07:05.035Z,88.79
2022-12-04T11:08:09.455Z,88.65
2022-12-04T11:09:22.516Z,88.83
2022-12-04T11:10:37.013Z,88.91
2022-12-04T11:11:40.774Z,89.00
2022-12-04T11:12:54.395Z,88.64
2022-12-04T11:14:05.891Z,88.77
2022-12-04T11:15:14.880Z,88.84
2022-12-04T11:16:34.899Z,88.82
2022-12-04T11:17:40.141Z,88.98
2022-12-04T11:18:48.481Z,88.57
2022-12-04T11:20:00.994Z,88.71
2022-12-04T11:21:06.292Z,88.16
2022-12-04T11:22:15.228Z,88.48
2022-12-04T11:23:18.243Z,88.35
2022-12-04T11:24:24.778Z,88.23
2022-12-04T11:25:29.883Z,88.45
2022-12-04T11:26:35.726Z,87.37
2022-12-04T11:27:38.512Z,87.69
2022-12-04T11:28:45.905Z,87.65
2022-12-04T11:29:49.236Z,87.76
2022-12-04T11:30:55.098Z,87.87
2022-12-04T11:32:04.193Z,88.17
2022-12-04T11:33:20.046Z,88.88
2022-12-04T11:34:25.175Z,89.03
2022-12-04T11:35:30.731Z,88.55
2022-12-04T11:36:37.021Z,88.26
2022-12-04T11:37:45.204Z,88.34
2022-12-04T11:38:49.753Z,88.29
2022-12-04T11:39:54.597Z,88.30
2022-12-04T11:41:00.455Z,88.33
2022-12-04T11:42:06.027Z,88.92
2022-12-04T11:43:15.426Z,88.31
2022-12-04T11:44:26.456Z,87.82
2022-12-04T11:45:29.255Z,87.57
2022-12-04T11:46:34.631Z,87.58
2022-12-04T11:47:37.695Z,87.65
2022-12-04T11:48:47.096Z,88.04
2022-12-04T11:50:01.660Z,88.26
2022-12-04T11:51:08.253Z,88.70
2022-12-04T11:52:23.055Z,89.26
2022-12-04T11:53:36.321Z,88.47
2022-12-04T11:54:49.387Z,88.09
2022-12-04T11:56:11.057Z,88.21
2022-12-04T11:57:23.958Z,88.44
2022-12-04T11:58:45.154Z,88.08
2022-12-04T12:00:06.580Z,87.68
2022-12-04T12:01:22.203Z,87.69
2022-12-04T12:02:39.944Z,87.73
2022-12-04T12:03:57.807Z,87.68
2022-12-04T12:05:16.781Z,87.91
2022-12-04T12:06:32.251Z,88.29
2022-12-04T12:07:42.184Z,88.10
2022-12-04T12:09:03.875Z,88.33
2022-12-04T12:10:11.145Z,88.93
2022-12-04T12:11:23.523Z,88.88
2022-12-04T12:12:33.369Z,88.32
2022-12-04T12:13:46.283Z,88.36
2022-12-04T12:14:58.846Z,88.12
2022-12-04T12:16:11.284Z,88.02
2022-12-04T12:17:21.962Z,88.02
2022-12-04T12:18:41.606Z,88.31
2022-12-04T12:20:04.274Z,88.35
2022-12-04T12:21:10.473Z,88.44
2022-12-04T12:22:22.083Z,88.33
2022-12-04T12:23:45.672Z,88.35
2022-12-04T12:24:57.291Z,88.41
2022-12-04T12:26:06.615Z,88.30
2022-12-04T12:27:28.435Z,88.24
2022-12-04T12:28:42.859Z,88.30
2022-12-04T12:29:59.549Z,88.42
2022-12-04T12:31:23.325Z,88.85
2022-12-04T12:32:36.630Z,88.56
2022-12-04T12:33:43.874Z,89.11
2022-12-04T12:34:49.999Z,89.08
2022-12-04T12:36:04.802Z,88.75
2022-12-04T12:37:16.308Z,88.73
2022-12-04T12:38:23.187Z,88.57
2022-12-04T12:39:31.300Z,88.72
2022-12-04T12:40:39.241Z,88.48
2022-12-04T12:41:46.213Z,88.87
2022-12-04T12:42:58.742Z,88.90
2022-12-04T12:44:12.496Z,89.04
2022-12-04T12:45:27.481Z,88.79
2022-12-04T12:46:37.611Z,89.07
2022-12-04T12:47:45.343Z,88.89
2022-12-04T12:48:58.484Z,88.85
2022-12-04T12:50:07.746Z,88.65
2022-12-04T12:51:30.148Z,88.89
2022-12-04T12:52:38.409Z,89.09
2022-12-04T12:53:46.068Z,89.04
2022-12-04T12:54:56.923Z,89.26
2022-12-04T12:56:05.378Z,89.14
2022-12-04T12:57:13.600Z,89.19
2022-12-04T12:58:23.951Z,89.15
2022-12-04T12:59:30.515Z,89.18
2022-12-04T13:00:41.212Z,88.88
2022-12-04T13:01:48.775Z,89.08
2022-12-04T13:02:59.355Z,89.06
2022-12-04T13:04:10.056Z,89.47
2022-12-04T13:05:17.885Z,89.22
2022-12-04T13:06:29.938Z,89.36
2022-12-04T13:07:44.938Z,89.72
2022-12-04T13:08:58.396Z,89.88
2022-12-04T13:10:08.344Z,89.82
2022-12-04T13:11:14.492Z,89.77
2022-12-04T13:12:23.295Z,89.78
2022-12-04T13:13:30.705Z,89.94
2022-12-04T13:14:36.290Z,89.91
2022-12-04T13:15:46.161Z,90.06
2022-12-04T13:16:54.517Z,90.06
2022-12-04T13:17:59.925Z,90.07
2022-12-04T13:19:11.063Z,90.04
2022-12-04T13:20:19.673Z,90.08
2022-12-04T13:21:36.060Z,90.25
2022-12-04T13:22:50.704Z,90.18
2022-12-04T13:24:06.883Z,90.11
2022-12-04T13:25:24.250Z,90.32
2022-12-04T13:26:41.695Z,90.54
2022-12-04T13:28:00.087Z,90.48
2022-12-04T13:29:14.528Z,90.80
2022-12-04T13:30:24.128Z,90.45
2022-12-04T13:31:38.821Z,90.75
2022-12-04T13:33:21.563Z,90.52
2022-12-04T13:34:41.581Z,90.32
2022-12-04T13:36:07.009Z,90.61
2022-12-04T13:37:29.313Z,90.55
2022-12-04T13:38:42.945Z,90.97
2022-12-04T13:40:32.659Z,91.00
2022-12-04T13:41:41.026Z,90.78
2022-12-04T13:42:45.750Z,90.66
2022-12-04T13:43:53.015Z,90.82
2022-12-04T13:44:59.908Z,91.06
2022-12-04T13:46:08.951Z,90.93
2022-12-04T13:47:29.070Z,91.06
2022-12-04T13:48:40.898Z,90.97
2022-12-04T13:49:47.845Z,90.93
2022-12-04T13:51:05.147Z,91.23
2022-12-04T13:52:27.552Z,91.53
2022-12-04T13:53:33.896Z,91.29
2022-12-04T13:54:39.947Z,91.06
2022-12-04T13:55:44.531Z,91.16
2022-12-04T13:56:50.762Z,91.25
2022-12-04T13:57:54.453Z,91.28
2022-12-04T13:59:03.241Z,91.54
2022-12-04T14:00:24.925Z,91.17
2022-12-04T14:01:31.255Z,91.28
2022-12-04T14:02:38.050Z,91.17
2022-12-04T14:03:48.350Z,91.65
2022-12-04T14:04:57.677Z,91.30
2022-12-04T14:06:05.470Z,91.48
2022-12-04T14:07:09.345Z,91.79
2022-12-04T14:08:25.011Z,91.41
2022-12-04T14:09:31.517Z,91.67
2022-12-04T14:10:38.485Z,91.78
2022-12-04T14:11:45.053Z,91.86
2022-12-04T14:12:57.265Z,91.85
2022-12-04T14:14:07.772Z,91.88
2022-12-04T14:15:22.753Z,91.73
2022-12-04T14:16:29.224Z,91.99
2022-12-04T14:17:33.189Z,92.09
2022-12-04T14:18:37.022Z,92.17
2022-12-04T14:19:42.700Z,92.24
2022-12-04T14:20:46.487Z,92.02
2022-12-04T14:21:49.204Z,92.24
2022-12-04T14:22:53.044Z,92.23
2022-12-04T14:23:57.174Z,92.50
2022-12-04T14:25:09.225Z,92.44